CHTM7: Spring River at Carthage, MO

                                SHEF ID:       CHTM7     Spring River at Carthage, MO
STATION TYPE:

PRECIP STAGE RIV-FLOW
in ft cfs
Ccp-Rev Ccp-Rev Ccp-Rev
(America/Chicago)
03/07 00:00 0.21 4.51 1030
03/07 01:00 0.21 4.68 1145
03/07 02:00 0.17 4.60 1091
03/07 03:00 0.17 4.55 1057
03/07 04:00 0.14 4.44 982
03/07 05:00 0.12 4.38 942
03/07 06:00 0.10 4.32 901
03/07 07:00 0.08 4.41 962
03/07 08:00 0.06 4.66 1131
03/07 09:00 0.06 4.94 1321
03/07 10:00 0.04 5.25 1531
03/07 11:00 0.03 5.49 1692
03/07 12:00 0.00 5.71 1844
03/07 13:00 0.00 5.80 1904
03/07 14:00 0.00 5.92 1986
03/07 15:00 0.00 5.93 1993
03/07 16:00 0.00 5.90 1973
03/07 17:00 0.00 5.88 1959
03/07 18:00 0.00 5.82 1918
03/07 19:00 0.00 5.77 1884
03/07 20:00 0.00 5.76 1877
03/07 21:00 0.00 5.65 1803
03/07 22:00 0.00 5.64 1796
03/07 23:00 0.00 5.56 1740
Data processed at Sun 08Mar2026 05:52 GMT

NOTICE: If you are parsing this page

Please convert to using our Data API. Starting early 2026 we will be migrating to: https://water.usace.army.mil with modern pages rendered in JavaScript. When this migration completes you will no longer be able to scrape this page! CWMSDataAPI (CDA)

Timeseries IDs (TSIDs)

TSIDs used from left to right in the data table
CART.Precip-Inc.Total.1Hour.1Hour.Ccp-Rev
CART.Stage.Inst.1Hour.0.Ccp-Rev
CART.Flow.Inst.1Hour.0.Ccp-Rev

                            

All information presented herein is the property of the government of the United States of America and may be revised or deleted at any time without prior notice. Dissemination of this information without the expressed written consent of the Public Affairs Office, Tulsa District U.S. Army Corps of Engineers is strictly prohibited. These data are gathered electronically and, as presented, have NOT undergone any form of quality control. These data are NOT guaranteed to be valid or correct.